To NAV CANADA Home Page Login to a new session Search on AWWS site Feedback and Comments Disclaimer Vers la page française équivalente Tips FAQ What's new on the site To the Forecasts and Observations / NOTAM section To "File a Flight Plan" website Publications and other links Update of the User's profile FIC Telephone Numbers My Weather Data Folder Route Weather Data Regional Weather Data Local Weather Data To the Forecasts and Observations / NOTAM section
Request Generated 12/10/2016 at 16:32:20 UTC . Weather information available at that time is displayed.

METAR/TAF

CALGARY/SPRINGBANK/AB    (show WxCam)

METAR CYBW 101600Z AUTO 13004KT 9SM BKN008 OVC080 M24/M26 A2972 RMK
SLP186=
SPECI CYBW 101523Z AUTO VRB02KT 9SM BKN008 BKN140 M25/M27 A2972 RMK
SLP187=
METAR CYBW 101500Z AUTO 17003KT 9SM SCT008 BKN140 OVC160 M25/M28
A2972 RMK SLP187=
SPECI CYBW 101422Z AUTO VRB02KT 9SM SCT007 BKN150 M26/M29 A2973 RMK
SLP192=
SPECI CYBW 101418Z AUTO 00000KT 9SM -SN SCT007 BKN150 M26/M29 A2974
RMK SLP195=
METAR CYBW 101400Z AUTO 19002KT 7SM -SN BKN007 M27/M29 A2974 RMK
SLP198=

TAF AMD CYBW 101410Z 1014/1101 VRB03KT 5SM IC BKN007 TEMPO 1014/1019
P6SM NSW SCT007 BKN030
FM101900 16005KT P6SM SCT008 BKN040 TEMPO 1019/1101 5SM IC BKN008
OVC030
RMK FCST BASED ON AUTO OBS. NXT FCST BY 101800Z=
Your time UTC time
Weather data provided by Environment Canada and NAV CANADA